Portada
METAR-TAF:

METAR-TAF

Aeropuertos :

Funchal, Madeira, Portugal

Aeropuerto de Madeira

latitud: 32-41-52N, longitud: 016-46-28W, altitud: 59 m

Observación

El informe se hizo hace 32 minutos, a las 06:30 UTC
Viento calma
Temperatura 21°C
Humedad 69%
Presión 1018 hPa
Visibilidad 10 km o más
Escasas nubes a una altura de 1300 ft

METAR: LPMA 240630Z 00000KT 9999 FEW013 21/15 Q1018

Hora: 08:02 (07:02 UTC)

Pronóstico

El informe se hizo hace 14 horas y 2 minutos, a las 17:00 UTC
Pronóstico válido del 23 a las 18 UTC al 24 a las 18 UTC
Viento 15 kt del noreste
Visibilidad 10 km o más
Nubes dispersas a una altura de 1500 ft
Evolucionando progresivamente
del 23 a las 18 UTC al 23 a las 21 UTC
Viento 15 kt del norte
Probabilidad 30% :
Temporalmente
del 23 a las 18 UTC al 23 a las 24 UTC
Viento 20 kt del norte con ráfagas de 30 kt

TAF: LPMA 231700Z 2318/2418 04015KT 9999 SCT015 BECMG 2318/2321 36015KT PROB30 TEMPO 2318/2324 36020G30KT

Observaciones y pronósticos meteorológicos de más de 4000 aeropuertos (mensajes METAR y TAF).

Los puntos amarillos y rojos representan las estaciones disponibles.

Ponga el ratón en el punto deseado para ver el nombre de la estación.

Haga clic para ver las observaciones y los pronósticos meteorológicos.

Para cambiar el mapa : haga clic en los botones verdes con una cruz de color negro para hacer un zoom, en el botón verde con un guión para alejar o en las flechas verdes para mapas adyacentes.


METAR-TAF: